Time;durP1;ratioP1;P1;durP2;ratioP2;P2;SDS_P1;SDS_P2;PMS_P1;PMS_P2;Temp;Humidity;BMP_temperature;BMP_pressure;BME280_temperature;BME280_humidity;BME280_pressure;Samples;Min_cycle;Max_cycle;Signal;HPM_P1;HPM_P2
2021/09/17 00:07:31;;;;;;;4.10;3.80;;;;;;;15.86;73.81;99064.73;468923;1190;144776;-63
2021/09/17 00:17:37;;;;;;;4.70;3.10;;;;;;;15.76;73.39;99063.99;476827;1191;141421;-62
2021/09/17 00:27:43;;;;;;;5.40;2.90;;;;;;;15.65;72.90;99061.58;477199;1190;141347;-61
2021/09/17 00:37:49;;;;;;;3.40;2.10;;;;;;;15.57;72.70;99061.06;477744;1190;141787;-60
2021/09/17 00:47:54;;;;;;;3.90;2.30;;;;;;;15.35;72.70;99055.84;473736;1190;140743;-59
2021/09/17 00:58:00;;;;;;;3.50;2.00;;;;;;;15.19;72.82;99048.48;465095;1190;141314;-60
2021/09/17 01:08:07;;;;;;;2.00;1.70;;;;;;;14.99;72.76;99048.17;476978;1190;193967;-60
2021/09/17 01:18:12;;;;;;;1.70;1.60;;;;;;;14.71;73.22;99045.36;477878;1190;141791;-60
2021/09/17 01:28:23;;;;;;;2.40;2.00;;;;;;;14.56;73.94;99034.59;477600;1190;141902;-61
2021/09/17 01:38:30;;;;;;;3.00;2.00;;;;;;;14.57;74.57;99018.73;476790;1191;140965;-60
2021/09/17 01:48:36;;;;;;;3.70;2.00;;;;;;;14.59;75.10;99014.72;471426;1190;141177;-60
2021/09/17 01:58:42;;;;;;;4.20;2.00;;;;;;;14.56;75.44;99016.42;465230;1192;141411;-60
2021/09/17 02:08:48;;;;;;;3.40;2.50;;;;;;;14.58;75.77;99004.08;476885;1191;141173;-61
2021/09/17 02:18:54;;;;;;;3.20;2.40;;;;;;;14.56;75.94;98996.16;477773;1190;140658;-61
2021/09/17 02:28:59;;;;;;;2.80;2.60;;;;;;;14.54;76.14;98996.54;476754;1191;142990;-61
2021/09/17 02:39:06;;;;;;;3.50;3.20;;;;;;;14.56;76.45;98988.52;477832;1190;142029;-61
2021/09/17 02:49:12;;;;;;;4.30;3.90;;;;;;;14.53;76.68;98988.45;477803;1190;141590;-61
2021/09/17 02:59:18;;;;;;;5.10;4.70;;;;;;;14.51;76.96;98980.56;477025;1190;143792;-60
2021/09/17 03:09:24;;;;;;;4.10;3.70;;;;;;;14.46;77.12;98973.06;465547;1190;141367;-59
2021/09/17 03:19:29;;;;;;;5.50;5.00;;;;;;;14.42;77.41;98975.04;468573;1190;142460;-61
2021/09/17 03:29:35;;;;;;;5.30;4.80;;;;;;;14.21;77.87;98973.21;477022;1190;142207;-61
2021/09/17 03:39:41;;;;;;;6.00;5.00;;;;;;;14.04;78.20;98963.44;477919;1190;141438;-61
2021/09/17 03:49:47;;;;;;;6.80;6.20;;;;;;;14.03;78.62;98954.23;477344;1191;141782;-61
2021/09/17 03:59:53;;;;;;;7.90;7.10;;;;;;;14.00;79.05;98954.98;469671;1190;141974;-63
2021/09/17 04:09:58;;;;;;;7.40;6.70;;;;;;;13.96;79.41;98953.89;462760;1190;140908;-60
2021/09/17 04:20:06;;;;;;;8.60;7.90;;;;;;;13.96;79.75;98953.05;470587;1191;142501;-60
2021/09/17 04:30:14;;;;;;;8.90;7.70;;;;;;;13.87;79.95;98954.04;464804;1182;142049;-60
2021/09/17 04:40:18;;;;;;;;;;;;;;;13.77;80.22;98952.42;469068;1191;141465;-65
2021/09/17 04:50:25;;;;;;;8.30;6.10;;;;;;;13.75;80.36;98961.20;471670;1190;128024;-60
2021/09/17 05:00:31;;;;;;;7.10;6.40;;;;;;;13.74;80.52;98964.42;477744;1190;142324;-60
2021/09/17 05:10:37;;;;;;;9.00;6.60;;;;;;;13.81;80.58;98966.83;477819;1190;141741;-63
2021/09/17 05:20:42;;;;;;;8.30;7.60;;;;;;;13.87;80.61;98971.55;477005;1190;141193;-61
2021/09/17 05:30:48;;;;;;;7.90;6.90;;;;;;;13.95;80.60;98968.13;477680;1190;142223;-61
2021/09/17 05:40:54;;;;;;;8.00;7.30;;;;;;;14.09;80.56;98969.10;476533;1191;141932;-60
2021/09/17 05:51:00;;;;;;;7.20;6.40;;;;;;;14.41;80.18;98958.90;477738;1190;144282;-62
2021/09/17 06:01:07;;;;;;;7.80;7.20;;;;;;;14.75;79.34;98966.45;477592;1190;142567;-61
2021/09/17 06:11:13;;;;;;;6.40;5.80;;;;;;;15.74;79.26;98967.82;466263;1191;144499;-61
2021/09/17 06:21:19;;;;;;;6.10;5.50;;;;;;;18.44;75.49;98956.07;477394;1191;141351;-61
2021/09/17 06:31:25;;;;;;;5.80;4.90;;;;;;;20.84;71.05;98953.04;461870;1190;145110;-59
2021/09/17 06:41:32;;;;;;;6.50;5.90;;;;;;;21.17;67.14;98959.61;467852;1190;141432;-62
2021/09/17 06:51:38;;;;;;;5.90;5.40;;;;;;;19.93;66.71;98959.42;462002;1190;141429;-61
2021/09/17 07:01:44;;;;;;;5.90;5.30;;;;;;;20.84;66.73;98950.16;461047;1192;141708;-59
2021/09/17 07:11:50;;;;;;;6.10;5.50;;;;;;;21.27;64.27;98945.77;471160;1190;144549;-57
2021/09/17 07:21:56;;;;;;;6.20;5.70;;;;;;;19.70;64.46;98947.19;448766;1190;20002472;-60
2021/09/17 07:32:03;;;;;;;7.10;6.30;;;;;;;19.33;66.66;98937.16;460278;1190;142637;-59
2021/09/17 07:42:10;;;;;;;5.10;4.60;;;;;;;24.44;62.20;98935.17;468146;1190;142911;-63
2021/09/17 07:52:16;;;;;;;6.90;5.40;;;;;;;26.66;56.49;98934.30;477602;1183;139895;-62
2021/09/17 08:02:22;;;;;;;5.90;5.30;;;;;;;27.30;54.05;98931.13;476824;1190;141264;-62
2021/09/17 08:12:28;;;;;;;6.80;6.10;;;;;;;26.56;52.74;98926.41;477728;1183;140535;-61
2021/09/17 08:22:34;;;;;;;6.10;5.60;;;;;;;25.84;52.28;98921.79;477974;1189;140401;-61
2021/09/17 08:32:41;;;;;;;8.10;5.20;;;;;;;23.83;53.65;98927.30;471704;1189;140374;-61
2021/09/17 08:42:47;;;;;;;;;;;;;;;22.40;55.45;98928.91;469359;1190;141177;-60
2021/09/17 08:52:53;;;;;;;6.20;5.30;;;;;;;21.36;56.81;98929.25;460873;1189;127064;-58
2021/09/17 09:03:01;;;;;;;6.80;5.10;;;;;;;20.93;57.74;98926.80;463228;1177;139825;-59
2021/09/17 09:13:08;;;;;;;5.50;5.00;;;;;;;20.46;58.94;98928.13;474091;1190;141683;-60
2021/09/17 09:23:18;;;;;;;11.30;5.30;;;;;;;19.85;59.40;98927.33;468802;1190;10001639;-63
2021/09/17 09:33:33;;;;;;;6.30;5.50;;;;;;;19.36;60.58;98929.16;477786;1189;142367;-62
2021/09/17 09:43:41;;;;;;;6.70;6.10;;;;;;;19.52;61.02;98925.92;477721;1189;143918;-64
2021/09/17 09:53:48;;;;;;;7.40;4.80;;;;;;;19.33;61.47;98925.11;477000;1190;140990;-62
2021/09/17 10:03:56;;;;;;;7.90;5.60;;;;;;;19.69;61.56;98915.02;464448;1190;141827;-62
2021/09/17 10:14:07;;;;;;;8.20;4.80;;;;;;;19.56;61.12;98918.07;467759;1190;142079;-62
2021/09/17 10:24:42;;;;;;;6.90;6.30;;;;;;;19.19;61.77;98916.75;477663;1190;142402;-62
2021/09/17 10:35:04;;;;;;;7.90;6.70;;;;;;;19.28;62.16;98911.91;477661;1190;141412;-66
2021/09/17 10:45:20;;;;;;;7.20;4.80;;;;;;;19.34;62.17;98921.17;477743;1190;144032;-63
2021/09/17 10:56:06;;;;;;;6.50;5.10;;;;;;;19.44;61.91;98920.98;477769;1190;141029;-62
2021/09/17 11:06:30;;;;;;;5.10;4.20;;;;;;;19.43;61.80;98917.30;465730;1191;142609;-62
2021/09/17 11:16:37;;;;;;;7.30;4.50;;;;;;;19.55;61.47;98920.98;461066;1190;141041;-63
2021/09/17 11:26:45;;;;;;;11.60;4.60;;;;;;;19.85;60.99;98918.89;476531;1190;141971;-63
2021/09/17 11:36:52;;;;;;;;;;;;;;;20.15;60.64;98906.60;469753;1189;144145;-62
2021/09/17 11:46:58;;;;;;;6.50;4.70;;;;;;;20.01;59.94;98897.81;471643;1189;128712;-63
2021/09/17 11:57:07;;;;;;;7.40;4.60;;;;;;;19.42;61.11;98899.39;473532;1189;141880;-63
2021/09/17 12:07:14;;;;;;;5.20;4.60;;;;;;;19.79;60.85;98893.15;462380;1190;140831;-62
2021/09/17 12:17:20;;;;;;;5.10;4.40;;;;;;;19.84;60.48;98893.11;477172;1189;141813;-64
2021/09/17 12:27:32;;;;;;;4.60;4.20;;;;;;;19.57;60.54;98887.45;477991;1183;141172;-61
2021/09/17 12:37:39;;;;;;;3.70;3.50;;;;;;;19.70;60.62;98889.38;470145;1190;141332;-60
2021/09/17 12:47:54;;;;;;;3.80;3.40;;;;;;;19.72;60.48;98885.44;467836;1189;141318;-57
2021/09/17 12:58:03;;;;;;;6.10;4.90;;;;;;;19.58;60.20;98880.25;477789;1189;141002;-58
2021/09/17 13:08:09;;;;;;;4.80;4.40;;;;;;;19.37;60.52;98886.96;476773;1190;142052;-57
2021/09/17 13:18:16;;;;;;;7.30;4.60;;;;;;;19.23;60.74;98897.08;477853;1190;141015;-59
2021/09/17 13:28:21;;;;;;;7.00;6.40;;;;;;;18.91;61.37;98896.70;462997;1190;140679;-66
2021/09/17 13:38:27;;;;;;;3.10;2.80;;;;;;;18.03;63.10;98898.83;476327;1189;142430;-65
2021/09/17 13:48:33;;;;;;;2.30;1.60;;;;;;;17.36;63.69;98901.15;477771;1190;141357;-65
2021/09/17 13:58:39;;;;;;;2.60;1.50;;;;;;;17.04;63.65;98894.16;477672;1190;141247;-59
2021/09/17 14:08:46;;;;;;;3.10;1.70;;;;;;;17.07;63.74;98884.79;476993;1190;141472;-59
2021/09/17 14:18:52;;;;;;;3.10;2.50;;;;;;;17.30;64.11;98878.20;476377;1190;142042;-61
2021/09/17 14:28:58;;;;;;;4.70;3.10;;;;;;;17.45;64.30;98880.08;476927;1190;141688;-59
2021/09/17 14:39:04;;;;;;;2.90;2.70;;;;;;;17.56;64.59;98876.94;477831;1190;140663;-59
2021/09/17 14:49:10;;;;;;;4.10;3.00;;;;;;;17.76;64.45;98875.00;477813;1190;141568;-59
2021/09/17 14:59:16;;;;;;;5.60;3.60;;;;;;;17.84;64.48;98871.39;476978;1189;141703;-57
2021/09/17 15:09:22;;;;;;;5.30;2.00;;;;;;;17.61;64.67;98870.92;477852;1190;142598;-61
2021/09/17 15:19:28;;;;;;;7.10;3.30;;;;;;;17.22;64.73;98870.14;477480;1184;140900;-61
2021/09/17 15:29:33;;;;;;;4.60;2.10;;;;;;;17.00;65.38;98876.97;477174;1190;141692;-69
2021/09/17 15:39:43;;;;;;;4.60;1.50;;;;;;;16.73;66.03;98883.45;474289;1190;141397;-62
2021/09/17 15:49:49;;;;;;;5.60;2.10;;;;;;;16.36;66.71;98889.73;474497;1189;141504;-61
2021/09/17 15:59:55;;;;;;;3.40;2.00;;;;;;;16.05;67.75;98897.03;477958;1190;141811;-62
2021/09/17 16:10:00;;;;;;;2.70;1.90;;;;;;;15.87;68.31;98902.84;477984;1189;141963;-62
2021/09/17 16:20:08;;;;;;;6.00;2.50;;;;;;;15.62;69.19;98899.02;477072;1190;141706;-62
2021/09/17 16:30:16;;;;;;;3.80;3.30;;;;;;;15.54;70.03;98895.35;477821;1190;142447;-62
2021/09/17 16:40:24;;;;;;;3.80;3.50;;;;;;;15.45;70.45;98893.04;477747;1191;141426;-61
2021/09/17 16:50:30;;;;;;;7.00;3.10;;;;;;;15.25;70.97;98892.98;477033;1190;142075;-61
2021/09/17 17:00:36;;;;;;;5.60;3.10;;;;;;;15.10;71.57;98896.66;474832;1191;142519;-60
2021/09/17 17:10:42;;;;;;;5.60;4.10;;;;;;;15.02;72.17;98892.66;477223;1190;141706;-60
2021/09/17 17:20:48;;;;;;;6.60;5.40;;;;;;;14.94;72.68;98889.98;473037;1190;141985;-61
2021/09/17 17:30:54;;;;;;;5.70;4.70;;;;;;;14.76;73.27;98886.77;477737;1190;140678;-61
2021/09/17 17:41:02;;;;;;;6.40;5.80;;;;;;;14.64;73.99;98893.80;462965;1190;142193;-61
2021/09/17 17:51:08;;;;;;;5.10;4.60;;;;;;;14.57;74.37;98897.45;474638;1190;142726;-62
2021/09/17 18:01:13;;;;;;;6.00;4.80;;;;;;;14.48;74.45;98909.23;471591;1189;141022;-60
2021/09/17 18:11:21;;;;;;;6.30;3.90;;;;;;;14.44;74.42;98910.42;477062;1190;140956;-61
2021/09/17 18:21:28;;;;;;;3.50;3.10;;;;;;;14.47;74.26;98917.06;477823;1190;140871;-62
2021/09/17 18:31:34;;;;;;;2.40;2.20;;;;;;;14.49;73.88;98924.63;467889;1190;140350;-62
2021/09/17 18:41:40;;;;;;;4.90;2.90;;;;;;;14.47;74.09;98925.11;477102;1190;142183;-61
2021/09/17 18:51:46;;;;;;;4.30;3.80;;;;;;;14.42;74.40;98928.02;461733;1190;10003049;-59
2021/09/17 19:01:52;;;;;;;5.00;4.60;;;;;;;14.35;74.92;98929.02;470273;1189;145948;-57
2021/09/17 19:11:59;;;;;;;4.90;4.50;;;;;;;14.22;75.66;98928.08;477014;1190;213040;-59
2021/09/17 19:22:05;;;;;;;4.10;3.70;;;;;;;13.96;76.61;98934.55;473012;1189;142441;-60
2021/09/17 19:32:11;;;;;;;5.90;3.60;;;;;;;13.91;77.22;98935.55;476917;1189;141181;-61
2021/09/17 19:42:18;;;;;;;4.00;3.60;;;;;;;13.87;77.71;98933.03;477637;1190;141594;-62
2021/09/17 19:52:24;;;;;;;3.70;3.30;;;;;;;13.90;78.02;98938.79;468200;1190;141214;-61
2021/09/17 20:02:30;;;;;;;4.40;4.00;;;;;;;13.90;78.37;98938.46;471229;1189;141361;-60
2021/09/17 20:12:39;;;;;;;6.70;6.10;;;;;;;13.84;78.60;98939.98;473602;1189;141934;-60
2021/09/17 20:22:45;;;;;;;6.10;5.50;;;;;;;13.81;78.92;98941.55;462083;1190;141181;-60
2021/09/17 20:32:51;;;;;;;6.70;6.00;;;;;;;13.76;79.25;98938.75;460451;1190;143338;-59
2021/09/17 20:42:58;;;;;;;7.80;6.20;;;;;;;13.67;79.50;98934.48;460774;1190;141308;-60
2021/09/17 20:53:03;;;;;;;7.80;7.20;;;;;;;13.60;79.84;98937.88;461981;1191;142301;-61
2021/09/17 21:03:09;;;;;;;8.00;6.40;;;;;;;13.55;80.14;98932.28;461663;1190;141146;-60
2021/09/17 21:13:17;;;;;;;13.00;7.60;;;;;;;13.51;80.28;98933.94;465785;1190;142169;-59
2021/09/17 21:23:24;;;;;;;7.40;6.70;;;;;;;13.51;80.39;98930.24;461557;1190;141566;-61
2021/09/17 21:33:30;;;;;;;7.00;6.30;;;;;;;13.50;80.76;98932.94;476854;1190;140660;-61
2021/09/17 21:43:37;;;;;;;7.10;6.40;;;;;;;13.49;80.83;98927.89;477821;1189;141667;-62
2021/09/17 21:53:43;;;;;;;7.20;6.60;;;;;;;13.53;80.85;98923.91;475004;1189;142260;-59
2021/09/17 22:03:50;;;;;;;7.20;6.40;;;;;;;13.57;80.99;98919.85;460851;1190;141950;-58
2021/09/17 22:13:56;;;;;;;7.40;6.70;;;;;;;13.53;81.06;98914.04;453541;1177;10001220;-60
2021/09/17 22:24:03;;;;;;;7.10;6.30;;;;;;;13.56;81.24;98908.82;463407;1190;142228;-59
2021/09/17 22:34:09;;;;;;;7.80;6.90;;;;;;;13.52;81.42;98904.82;467227;1183;141455;-58
2021/09/17 22:44:15;;;;;;;7.50;6.00;;;;;;;13.48;81.46;98896.20;461236;1190;144731;-59
2021/09/17 22:54:22;;;;;;;7.80;7.10;;;;;;;13.43;81.59;98893.42;475118;1190;142456;-58
2021/09/17 23:04:29;;;;;;;7.30;6.70;;;;;;;13.42;81.79;98892.98;461069;1190;140588;-57
2021/09/17 23:14:36;;;;;;;7.70;7.00;;;;;;;13.41;81.87;98892.73;461266;1183;144809;-61
2021/09/17 23:24:41;;;;;;;7.20;6.70;;;;;;;13.41;81.88;98890.63;471651;1177;141238;-59
2021/09/17 23:34:47;;;;;;;7.10;6.60;;;;;;;13.42;81.99;98891.73;466381;1190;144805;-59
2021/09/17 23:44:53;;;;;;;7.30;6.70;;;;;;;13.43;81.91;98892.58;475129;1190;142261;-56
2021/09/17 23:54:59;;;;;;;6.00;5.50;;;;;;;13.44;82.00;98899.31;474253;1183;140797;-58
